createdAt,value
2023-05-01T00:28:02.060Z,10.42
2023-05-01T00:30:55.756Z,10.09
2023-05-01T00:40:04.399Z,9.88
2023-05-01T00:43:19.345Z,9.71
2023-05-01T00:47:29.641Z,9.82
2023-05-01T00:51:19.070Z,9.73
2023-05-01T00:54:48.974Z,9.74
2023-05-01T00:58:47.525Z,9.68
2023-05-01T01:14:51.794Z,9.94
2023-05-01T01:23:18.840Z,9.96
2023-05-01T01:27:47.710Z,9.82
2023-05-01T01:31:46.249Z,9.71
2023-05-01T01:35:57.991Z,9.56
2023-05-01T01:39:25.861Z,9.65
2023-05-01T01:43:12.076Z,9.57
2023-05-01T01:46:51.526Z,9.44
2023-05-01T01:50:22.540Z,9.63
2023-05-01T01:53:59.118Z,9.59
2023-05-01T01:57:59.332Z,9.41
2023-05-01T02:01:25.302Z,9.39
2023-05-01T02:05:51.587Z,9.59
2023-05-01T02:10:08.471Z,9.58
2023-05-01T02:13:30.303Z,9.43
2023-05-01T02:17:10.243Z,9.39
2023-05-01T02:20:37.791Z,9.32
2023-05-01T02:24:11.915Z,9.33
2023-05-01T02:27:21.372Z,9.37
2023-05-01T02:31:21.516Z,9.28
2023-05-01T02:34:17.937Z,9.15
2023-05-01T02:37:52.748Z,9.07
2023-05-01T02:41:36.468Z,9.03
2023-05-01T02:45:28.087Z,9.05
2023-05-01T02:49:14.439Z,9.04
2023-05-01T02:52:28.243Z,8.91
2023-05-01T02:56:30.983Z,8.93
2023-05-01T02:59:53.673Z,8.97
2023-05-01T03:03:24.664Z,8.82
2023-05-01T03:06:19.761Z,8.85
2023-05-01T03:09:30.608Z,8.80
2023-05-01T03:12:03.604Z,8.76
2023-05-01T03:14:55.101Z,8.73
2023-05-01T03:18:47.502Z,8.76
2023-05-01T03:22:01.344Z,8.82
2023-05-01T03:25:35.054Z,8.80
2023-05-01T03:28:33.784Z,8.79
2023-05-01T03:31:43.108Z,8.73
2023-05-01T03:34:47.485Z,8.78
2023-05-01T03:37:46.627Z,8.65
2023-05-01T03:41:26.699Z,8.54
2023-05-01T03:44:59.775Z,8.60
2023-05-01T03:49:08.369Z,8.67
2023-05-01T03:52:41.749Z,8.57
2023-05-01T03:55:38.170Z,8.63
2023-05-01T03:58:46.121Z,8.69
2023-05-01T04:02:22.249Z,8.77
2023-05-01T04:06:00.632Z,8.93
2023-05-01T04:09:34.672Z,8.94
2023-05-01T04:12:47.406Z,9.07
2023-05-01T04:15:45.002Z,9.21
2023-05-01T04:19:02.191Z,9.28
2023-05-01T04:22:14.714Z,9.40
2023-05-01T04:26:18.309Z,9.52
2023-05-01T04:29:50.077Z,9.64
2023-05-01T04:33:15.683Z,9.69
2023-05-01T04:36:57.096Z,9.87
2023-05-01T04:40:55.127Z,9.95
2023-05-01T04:44:44.136Z,10.15
2023-05-01T04:48:46.134Z,10.24
2023-05-01T04:51:33.015Z,10.28
2023-05-01T04:55:08.401Z,10.53
2023-05-01T05:02:46.645Z,10.70
2023-05-01T05:53:29.435Z,13.10
2023-05-01T05:56:34.311Z,13.15
2023-05-01T05:59:36.698Z,13.15
2023-05-01T06:33:36.798Z,15.34
2023-05-01T07:00:27.692Z,17.01
2023-05-01T07:07:07.426Z,17.63
2023-05-01T07:22:04.407Z,18.21
2023-05-01T13:58:34.747Z,28.73
2023-05-01T14:05:56.496Z,29.03
2023-05-01T14:58:26.741Z,30.76
2023-05-01T15:01:15.494Z,30.61
2023-05-01T15:03:50.877Z,30.89
2023-05-01T15:06:30.464Z,30.87
2023-05-01T15:09:07.047Z,30.45
2023-05-01T15:11:59.104Z,29.86
2023-05-01T15:15:09.959Z,29.78
2023-05-01T16:22:51.036Z,30.14
